NCAR-RAP Real-Time Weather Data

Output produced by METARs form (26 May 2022  07:32 UTC)
found at http://weather.rap.ucar.edu/surface/
 
VVNB 260700Z 07004KT 350V140 CAVOK 32/27 Q1001 NOSIG
VVNB 260630Z 07005KT 040V100 8000 NSC 31/27 Q1001 NOSIG
VVNB 260600Z 04003KT 360V070 7000 FEW036 30/26 Q1002 NOSIG
VVNB 260530Z 05006KT 010V100 3700 SHRA SCT021 BKN025 29/26 Q1002 NOSIG
VVNB 260500Z 06005KT 020V100 7000 BKN019 BKN042 30/26 Q1003 NOSIG
VVNB 260430Z 08005KT 030V130 7000 FEW014 SCT018 BKN042 31/26 Q1003 NOSIG
VVNB 260400Z 08005KT 050V130 6000 SCT011 30/26 Q1003 BECMG TL0430 8000 NSW
VVNB 260330Z 08005KT 050V120 4500 BR SCT008 BKN015 29/26 Q1003 BECMG TL0400 6000 NSW
VVNB 260300Z 04005KT 020V080 3500 BR FEW008 BKN010 BKN014 28/26 Q1004 BECMG TL0330 6000 NSW
VVNB 260230Z 06004KT 030V090 3600 BR BKN007 BKN010 28/26 Q1004 BECMG TL0330 6000 NSW
VVNB 260200Z 07005KT 3100 BR SCT006 BKN008 BKN020 28/26 Q1004 BECMG FM0330 6000 NSW
VVNB 260130Z 08005KT 2700 -DZ BR BKN005 BKN020 27/26 Q1004 BECMG 3200 BR
VVNB 260100Z 09006KT 3200 BR BKN005 BKN020 27/25 Q1003 BECMG TL0200 6000 NSW SCT010 BKN030
VVNB 260030Z 09006KT 2700 BR BKN006 BKN010 27/25 Q1003 BECMG TL0100 3500 BR
VVNB 260000Z 09005KT 2800 BR BKN008 26/25 Q1003 BECMG FM0030 3000 BR
VVNB 252330Z 10006KT 2300 BR BKN008 26/25 Q1003 BECMG FM0030 3000 BR
VVNB 252300Z 10006KT 2400 BR BKN006 BKN010 26/25 Q1003 BECMG FM0030 3000 BR
VVNB 252230Z 08004KT 3600 BR BKN006 26/25 Q1003 NOSIG
VVNB 252200Z 07004KT 4600 BR BKN006 OVC012 26/25 Q1003 NOSIG
VVNB 252130Z 08006KT 5000 BR FEW005 BKN007 26/25 Q1002 NOSIG
VVNB 252100Z 08006KT 4500 BR BKN006 26/25 Q1002 NOSIG
VVNB 252030Z 08006KT 4000 BR SCT006 OVC009 26/25 Q1002 NOSIG
VVNB 252000Z 08007KT 4000 BR SCT008 OVC010 26/25 Q1002 NOSIG